createdAt,value
2022-10-22T00:01:28.481Z,7.60
2022-10-22T00:04:34.446Z,7.45
2022-10-22T00:07:37.924Z,7.18
2022-10-22T00:10:40.527Z,6.60
2022-10-22T00:13:43.349Z,6.50
2022-10-22T00:16:45.622Z,7.38
2022-10-22T00:19:47.777Z,7.00
2022-10-22T00:22:53.278Z,7.18
2022-10-22T00:25:55.658Z,6.93
2022-10-22T00:28:57.785Z,7.45
2022-10-22T00:32:00.042Z,8.23
2022-10-22T00:35:02.253Z,7.68
2022-10-22T00:38:05.208Z,7.32
2022-10-22T00:41:07.673Z,7.77
2022-10-22T00:44:30.022Z,7.95
2022-10-22T00:47:43.096Z,7.47
2022-10-22T00:50:47.854Z,7.13
2022-10-22T00:53:53.461Z,7.95
2022-10-22T00:56:55.714Z,7.37
2022-10-22T00:59:57.982Z,7.50
2022-10-22T01:03:00.407Z,7.28
2022-10-22T01:06:04.911Z,7.45
2022-10-22T01:09:07.330Z,7.53
2022-10-22T01:12:23.358Z,7.10
2022-10-22T01:16:01.203Z,8.25
2022-10-22T01:19:23.945Z,7.25
2022-10-22T01:22:38.303Z,8.23
2022-10-22T01:25:49.627Z,6.97
2022-10-22T01:29:10.706Z,7.03
2022-10-22T01:32:14.734Z,6.85
2022-10-22T01:35:19.427Z,7.45
2022-10-22T01:38:23.315Z,7.05
2022-10-22T01:41:27.206Z,7.38
2022-10-22T01:44:30.822Z,6.80
2022-10-22T01:47:39.398Z,7.03
2022-10-22T01:50:57.285Z,7.72
2022-10-22T01:54:18.127Z,6.95
2022-10-22T01:57:23.469Z,7.85
2022-10-22T02:00:25.914Z,6.80
2022-10-22T02:03:38.921Z,7.60
2022-10-22T02:06:42.889Z,7.05
2022-10-22T02:09:45.735Z,7.13
2022-10-22T02:12:50.432Z,7.15
2022-10-22T02:15:53.004Z,6.70
2022-10-22T02:18:57.114Z,7.00
2022-10-22T02:21:59.526Z,7.75
2022-10-22T02:25:01.739Z,7.78
2022-10-22T02:28:07.567Z,6.97
2022-10-22T02:31:13.580Z,6.80
2022-10-22T02:34:19.695Z,7.00
2022-10-22T02:37:22.232Z,7.38
2022-10-22T02:40:25.014Z,6.88
2022-10-22T02:43:28.882Z,7.22
2022-10-22T02:46:31.142Z,7.17
2022-10-22T02:49:33.372Z,7.10
2022-10-22T02:52:35.613Z,7.18
2022-10-22T02:55:37.808Z,7.32
2022-10-22T02:58:39.918Z,7.18
2022-10-22T03:01:42.132Z,7.73
2022-10-22T03:04:44.412Z,7.68
2022-10-22T03:07:46.583Z,8.23
2022-10-22T03:10:48.721Z,8.10
2022-10-22T03:13:50.880Z,7.75
2022-10-22T03:16:53.024Z,7.40
2022-10-22T03:19:55.166Z,7.93
2022-10-22T03:22:57.648Z,7.72
2022-10-22T03:29:07.584Z,7.93
2022-10-22T03:32:09.794Z,7.87
2022-10-22T03:35:12.216Z,7.85
2022-10-22T03:38:14.645Z,8.82
2022-10-22T03:41:16.954Z,8.18
2022-10-22T03:44:19.844Z,7.82
2022-10-22T03:47:24.464Z,7.50
2022-10-22T03:50:26.688Z,7.82
2022-10-22T03:53:28.896Z,8.05
2022-10-22T03:56:31.154Z,8.60
2022-10-22T03:59:37.209Z,8.20
2022-10-22T04:02:39.460Z,7.70
2022-10-22T04:05:41.637Z,7.47
2022-10-22T04:08:44.289Z,7.40
2022-10-22T04:11:46.458Z,8.05
2022-10-22T04:14:48.689Z,8.43
2022-10-22T04:17:50.894Z,7.83
2022-10-22T04:20:53.130Z,8.30
2022-10-22T04:23:55.688Z,7.38
2022-10-22T04:26:57.983Z,7.55
2022-10-22T04:30:00.650Z,7.75
2022-10-22T04:33:02.953Z,7.67
2022-10-22T04:36:12.418Z,8.25
2022-10-22T04:39:14.815Z,7.80
2022-10-22T04:42:17.165Z,7.63
2022-10-22T04:45:19.343Z,8.35
2022-10-22T04:48:21.528Z,7.83
2022-10-22T04:51:24.957Z,7.40
2022-10-22T04:54:30.506Z,7.95
2022-10-22T04:57:35.180Z,7.90
2022-10-22T05:00:37.347Z,8.52
2022-10-22T05:03:39.635Z,8.23
2022-10-22T05:06:41.998Z,9.02
2022-10-22T05:09:44.288Z,9.13
2022-10-22T05:12:46.421Z,8.45
2022-10-22T05:15:48.581Z,8.25
2022-10-22T05:18:51.109Z,8.63
2022-10-22T05:21:54.317Z,9.63
2022-10-22T05:24:56.457Z,8.10
2022-10-22T05:28:00.290Z,8.30
2022-10-22T05:31:03.177Z,8.10
2022-10-22T05:34:05.355Z,8.60
2022-10-22T05:37:07.494Z,8.70
2022-10-22T05:40:19.583Z,8.63
2022-10-22T05:43:29.368Z,8.23
2022-10-22T05:46:34.356Z,8.23
2022-10-22T05:49:36.548Z,8.40
2022-10-22T05:52:38.955Z,9.18
2022-10-22T05:55:41.501Z,9.48
2022-10-22T05:58:44.514Z,9.27
2022-10-22T06:01:46.867Z,9.00
2022-10-22T06:04:49.339Z,10.00
2022-10-22T06:07:51.619Z,10.35
2022-10-22T06:10:53.967Z,10.30
2022-10-22T06:13:56.231Z,11.07
2022-10-22T06:16:59.726Z,9.50
2022-10-22T06:20:02.029Z,10.07
2022-10-22T06:23:04.295Z,9.43
2022-10-22T06:26:06.968Z,9.43
2022-10-22T06:29:09.581Z,9.75
2022-10-22T06:32:11.730Z,8.95
2022-10-22T06:35:14.018Z,9.70
2022-10-22T06:38:16.247Z,9.43
2022-10-22T06:41:18.763Z,9.45
2022-10-22T06:44:21.046Z,9.80
2022-10-22T06:47:23.297Z,9.65
2022-10-22T06:50:25.791Z,9.77
2022-10-22T06:53:28.015Z,8.98
2022-10-22T06:56:30.326Z,9.55
2022-10-22T06:59:32.766Z,8.60
2022-10-22T07:02:34.965Z,8.95
2022-10-22T07:05:37.092Z,8.03
2022-10-22T07:08:40.207Z,9.00
2022-10-22T07:11:44.087Z,9.25
2022-10-22T07:14:46.240Z,9.00
2022-10-22T07:17:48.494Z,8.48
2022-10-22T07:20:50.782Z,8.93
2022-10-22T07:23:53.219Z,9.35
2022-10-22T07:26:55.451Z,9.40
2022-10-22T07:30:01.110Z,8.90
2022-10-22T07:33:03.473Z,9.73
2022-10-22T07:36:07.531Z,8.77
2022-10-22T07:39:09.728Z,8.63
2022-10-22T07:42:11.879Z,8.60
2022-10-22T07:45:14.036Z,7.85
2022-10-22T07:48:16.816Z,9.10
2022-10-22T07:51:19.062Z,8.67
2022-10-22T07:54:21.245Z,8.90
2022-10-22T07:57:24.432Z,9.27
2022-10-22T08:00:26.654Z,9.43
2022-10-22T08:03:29.091Z,9.23
2022-10-22T08:06:31.486Z,9.60
2022-10-22T08:09:33.671Z,9.50
2022-10-22T08:12:36.141Z,9.70
2022-10-22T08:15:38.696Z,10.05
2022-10-22T08:18:40.908Z,10.20
2022-10-22T08:21:43.090Z,10.23
2022-10-22T08:24:45.419Z,9.82
2022-10-22T08:27:47.652Z,10.07
2022-10-22T08:30:49.866Z,9.32
2022-10-22T08:33:52.087Z,8.77
2022-10-22T08:36:54.230Z,9.63
2022-10-22T08:39:56.404Z,9.13
2022-10-22T08:42:58.878Z,9.15
2022-10-22T08:46:16.530Z,8.85
2022-10-22T08:49:24.336Z,8.85
2022-10-22T08:52:26.581Z,8.53
2022-10-22T08:55:28.789Z,9.30
2022-10-22T08:59:00.148Z,9.10
2022-10-22T09:02:02.981Z,8.25
2022-10-22T09:05:25.513Z,7.95
2022-10-22T09:08:28.096Z,7.93
2022-10-22T09:11:37.886Z,8.18
2022-10-22T09:14:40.188Z,8.32
2022-10-22T09:17:53.197Z,7.97
2022-10-22T09:20:58.905Z,8.40
2022-10-22T09:24:04.994Z,8.30
2022-10-22T09:27:17.944Z,8.43
2022-10-22T09:30:22.302Z,8.98
2022-10-22T09:33:25.722Z,8.48
2022-10-22T09:36:28.956Z,9.10
2022-10-22T09:39:36.801Z,8.90
2022-10-22T09:42:39.252Z,8.82
2022-10-22T09:45:42.252Z,8.93
2022-10-22T09:49:04.693Z,9.57
2022-10-22T09:52:21.823Z,9.05
2022-10-22T09:55:25.293Z,9.30
2022-10-22T09:58:27.847Z,9.95
2022-10-22T10:01:32.907Z,10.18
2022-10-22T10:04:36.343Z,9.77
2022-10-22T10:07:39.212Z,10.05
2022-10-22T10:10:44.155Z,10.60
2022-10-22T10:13:46.324Z,10.45
2022-10-22T10:16:58.875Z,10.30
2022-10-22T10:20:08.569Z,10.80
2022-10-22T10:23:25.896Z,10.90
2022-10-22T10:26:47.734Z,10.60
2022-10-22T10:29:52.959Z,10.27
2022-10-22T10:32:55.158Z,11.63
2022-10-22T10:36:06.821Z,10.50
2022-10-22T10:39:12.487Z,9.57
2022-10-22T10:42:26.869Z,9.90
2022-10-22T10:45:32.168Z,10.30
2022-10-22T10:49:00.919Z,9.85
2022-10-22T10:52:28.499Z,10.45
2022-10-22T10:55:32.916Z,10.35
2022-10-22T10:58:40.264Z,10.17
2022-10-22T11:01:47.213Z,10.05
2022-10-22T11:05:08.861Z,10.52
2022-10-22T11:08:13.742Z,9.95
2022-10-22T11:11:21.236Z,10.30
2022-10-22T11:14:30.053Z,9.73
2022-10-22T11:17:37.028Z,10.45
2022-10-22T11:20:42.559Z,10.90
2022-10-22T11:23:53.658Z,10.13
2022-10-22T11:27:03.443Z,10.85
2022-10-22T11:30:17.132Z,10.20
2022-10-22T11:33:21.852Z,10.30
2022-10-22T11:36:25.264Z,10.93
2022-10-22T11:39:31.286Z,10.80
2022-10-22T11:42:34.946Z,10.60
2022-10-22T11:45:38.492Z,10.77
2022-10-22T11:48:40.642Z,10.80
2022-10-22T11:51:43.560Z,10.70
2022-10-22T11:54:45.818Z,11.38
2022-10-22T11:57:48.274Z,10.82
2022-10-22T12:00:50.434Z,10.90
2022-10-22T12:03:58.772Z,10.18
2022-10-22T12:07:02.187Z,10.63
2022-10-22T12:10:18.563Z,11.00
2022-10-22T12:13:24.260Z,11.27
2022-10-22T12:16:37.881Z,9.77
2022-10-22T12:19:56.459Z,9.80
2022-10-22T12:23:01.019Z,10.75
2022-10-22T12:26:04.281Z,10.23
2022-10-22T12:29:10.438Z,10.63
2022-10-22T12:32:13.739Z,10.00
2022-10-22T12:35:18.005Z,11.15
2022-10-22T12:38:22.006Z,11.77
2022-10-22T12:41:30.689Z,10.90
2022-10-22T12:44:32.942Z,10.77
2022-10-22T12:47:35.233Z,10.50
2022-10-22T12:50:41.071Z,10.15
2022-10-22T12:53:45.377Z,10.07
2022-10-22T12:56:47.781Z,10.88
2022-10-22T12:59:51.330Z,10.30
2022-10-22T13:02:54.169Z,10.03
2022-10-22T13:05:56.392Z,10.48
2022-10-22T13:09:01.724Z,11.27
2022-10-22T13:12:05.054Z,10.52
2022-10-22T13:15:39.786Z,11.65
2022-10-22T13:18:43.755Z,10.80
2022-10-22T13:21:48.901Z,9.82
2022-10-22T13:24:51.478Z,10.68
2022-10-22T13:27:55.605Z,11.05
2022-10-22T13:30:59.390Z,10.82
2022-10-22T13:34:09.823Z,10.87
2022-10-22T13:37:14.088Z,12.45
2022-10-22T13:40:16.582Z,10.57
2022-10-22T13:43:19.497Z,10.38
2022-10-22T13:46:22.176Z,10.65
2022-10-22T13:49:24.344Z,11.07
2022-10-22T13:52:29.616Z,11.13
2022-10-22T13:55:31.996Z,11.50
2022-10-22T13:58:34.144Z,12.80
2022-10-22T14:01:36.917Z,12.10
2022-10-22T14:04:40.016Z,12.17
2022-10-22T14:07:42.467Z,12.02
2022-10-22T14:10:44.930Z,12.25
2022-10-22T14:13:47.204Z,12.95
2022-10-22T14:16:49.924Z,12.57
2022-10-22T14:19:52.274Z,12.47
2022-10-22T14:22:55.135Z,13.13
2022-10-22T14:25:57.967Z,13.18
2022-10-22T14:29:15.714Z,13.05
2022-10-22T14:32:21.891Z,13.48
2022-10-22T14:35:24.433Z,12.30
2022-10-22T14:38:26.625Z,13.77
2022-10-22T14:41:29.058Z,12.93
2022-10-22T14:44:31.241Z,12.63
2022-10-22T14:47:33.689Z,13.25
2022-10-22T14:50:35.983Z,13.27
2022-10-22T14:53:38.206Z,12.68
2022-10-22T14:56:40.422Z,12.85
2022-10-22T14:59:43.321Z,12.60
2022-10-22T15:02:46.181Z,12.57
2022-10-22T15:05:51.158Z,11.37
2022-10-22T15:08:53.360Z,13.07
2022-10-22T15:11:55.581Z,13.55
2022-10-22T15:14:57.765Z,12.45
2022-10-22T15:17:59.999Z,12.88
2022-10-22T15:21:03.750Z,13.30
2022-10-22T15:24:06.289Z,13.25
2022-10-22T15:27:09.110Z,13.35
2022-10-22T15:30:11.542Z,12.80
2022-10-22T15:33:13.771Z,12.63
2022-10-22T15:36:16.192Z,13.30
2022-10-22T15:39:18.681Z,12.52
2022-10-22T15:42:20.913Z,12.63
2022-10-22T15:45:25.037Z,12.30
2022-10-22T15:48:27.198Z,13.00
2022-10-22T15:51:29.352Z,13.37
2022-10-22T15:54:31.861Z,12.65
2022-10-22T15:57:34.049Z,13.52
2022-10-22T16:00:36.329Z,13.23
2022-10-22T16:03:38.742Z,13.82
2022-10-22T16:06:42.529Z,13.53
2022-10-22T16:09:44.703Z,14.85
2022-10-22T16:12:47.188Z,15.48
2022-10-22T16:15:49.792Z,14.93
2022-10-22T16:18:52.287Z,15.38
2022-10-22T16:21:55.524Z,13.70
2022-10-22T16:24:57.811Z,14.48
2022-10-22T16:28:00.126Z,15.00
2022-10-22T16:31:06.394Z,14.32
2022-10-22T16:34:08.602Z,14.40
2022-10-22T16:37:11.442Z,13.53
2022-10-22T16:40:13.676Z,13.55
2022-10-22T16:43:16.053Z,13.98
2022-10-22T16:46:19.247Z,13.65
2022-10-22T16:49:21.736Z,14.13
2022-10-22T16:52:23.910Z,14.47
2022-10-22T16:55:26.236Z,14.70
2022-10-22T16:58:28.632Z,14.82
2022-10-22T17:01:31.445Z,15.93
2022-10-22T17:04:34.331Z,17.02
2022-10-22T17:07:36.706Z,17.10
2022-10-22T17:10:39.284Z,17.50
2022-10-22T17:13:41.950Z,17.27
2022-10-22T17:16:44.961Z,16.60
2022-10-22T17:19:47.266Z,17.88
2022-10-22T17:22:49.765Z,18.03
2022-10-22T17:25:57.470Z,20.17
2022-10-22T17:29:00.057Z,20.67
2022-10-22T17:32:03.265Z,18.60
2022-10-22T17:35:06.768Z,19.27
2022-10-22T17:38:09.108Z,18.73
2022-10-22T17:41:17.498Z,19.25
2022-10-22T17:44:20.076Z,19.00
2022-10-22T17:47:22.403Z,19.45
2022-10-22T17:50:24.778Z,19.95
2022-10-22T17:53:27.352Z,19.67
2022-10-22T17:56:30.322Z,20.10
2022-10-22T17:59:33.097Z,20.08
2022-10-22T18:02:35.454Z,19.63
2022-10-22T18:05:37.850Z,20.98
2022-10-22T18:08:40.568Z,18.43
2022-10-22T18:11:43.070Z,19.33
2022-10-22T18:14:47.165Z,20.90
2022-10-22T18:17:50.644Z,19.05
2022-10-22T18:20:53.216Z,19.42
2022-10-22T18:23:55.948Z,19.53
2022-10-22T18:26:58.286Z,20.10
2022-10-22T18:30:00.574Z,20.88
2022-10-22T18:33:02.943Z,20.10
2022-10-22T18:36:06.537Z,19.27
2022-10-22T18:39:08.894Z,22.10
2022-10-22T18:42:11.193Z,19.70
2022-10-22T18:45:13.475Z,20.58
2022-10-22T18:48:19.744Z,19.40
2022-10-22T18:51:22.516Z,19.50
2022-10-22T18:54:25.015Z,20.43
2022-10-22T18:57:27.377Z,20.27
2022-10-22T19:00:30.801Z,21.08
2022-10-22T19:03:33.454Z,20.73
2022-10-22T19:06:37.157Z,21.20
2022-10-22T19:09:40.405Z,21.13
2022-10-22T19:12:42.722Z,23.75
2022-10-22T19:15:45.076Z,23.98
2022-10-22T19:18:47.714Z,21.75
2022-10-22T19:21:50.886Z,22.67
2022-10-22T19:24:53.323Z,23.60
2022-10-22T19:27:55.685Z,21.55
2022-10-22T19:30:58.763Z,24.77
2022-10-22T19:34:01.874Z,23.02
2022-10-22T19:37:04.933Z,22.50
2022-10-22T19:40:08.218Z,23.77
2022-10-22T19:43:10.752Z,23.02
2022-10-22T19:46:13.375Z,22.60
2022-10-22T19:49:18.946Z,23.35
2022-10-22T19:52:24.587Z,22.77
2022-10-22T19:55:27.162Z,22.97
2022-10-22T19:58:29.331Z,23.58
2022-10-22T20:01:32.084Z,24.25
2022-10-22T20:04:35.948Z,27.27
2022-10-22T20:07:38.433Z,23.98
2022-10-22T20:10:41.738Z,23.67
2022-10-22T20:13:46.632Z,24.20
2022-10-22T20:16:52.076Z,24.80
2022-10-22T20:19:54.289Z,23.75
2022-10-22T20:22:56.564Z,24.10
2022-10-22T20:25:58.762Z,24.03
2022-10-22T20:29:01.182Z,23.52
2022-10-22T20:32:05.440Z,22.50
2022-10-22T20:35:10.408Z,25.35
2022-10-22T20:38:14.299Z,25.52
2022-10-22T20:41:18.686Z,22.77
2022-10-22T20:47:51.390Z,24.90
2022-10-22T20:50:54.532Z,21.92
2022-10-22T20:53:56.770Z,24.05
2022-10-22T20:56:59.024Z,21.83
2022-10-22T21:00:01.238Z,24.35
2022-10-22T21:03:03.421Z,24.50
2022-10-22T21:06:06.237Z,24.67
2022-10-22T21:09:12.695Z,24.25
2022-10-22T21:12:14.961Z,23.80
2022-10-22T21:15:17.185Z,23.98
2022-10-22T21:18:19.356Z,27.30
2022-10-22T21:21:21.603Z,25.20
2022-10-22T21:24:24.861Z,23.92
2022-10-22T21:27:27.157Z,21.97
2022-10-22T21:30:29.390Z,22.63
2022-10-22T21:33:31.879Z,21.98
2022-10-22T21:36:34.064Z,23.63
2022-10-22T21:39:41.073Z,21.50
2022-10-22T21:42:44.679Z,20.33
2022-10-22T21:45:46.872Z,20.92
2022-10-22T21:48:53.093Z,21.13
2022-10-22T21:51:55.409Z,24.08
2022-10-22T21:54:57.656Z,22.70
2022-10-22T21:57:59.829Z,22.50
2022-10-22T22:01:02.151Z,23.60
2022-10-22T22:04:04.435Z,21.90
2022-10-22T22:07:06.585Z,22.48
2022-10-22T22:10:09.979Z,22.35
2022-10-22T22:13:12.259Z,22.17
2022-10-22T22:16:17.298Z,24.92
2022-10-22T22:19:19.468Z,24.25
2022-10-22T22:22:21.670Z,24.13
2022-10-22T22:25:24.213Z,23.98
2022-10-22T22:28:26.760Z,22.73
2022-10-22T22:31:30.620Z,25.15
2022-10-22T22:34:33.141Z,25.20
2022-10-22T22:37:35.288Z,23.67
2022-10-22T22:40:41.233Z,23.60
2022-10-22T22:43:44.350Z,23.00
2022-10-22T22:46:46.568Z,21.83
2022-10-22T22:49:48.761Z,23.65
2022-10-22T22:52:50.913Z,20.58
2022-10-22T22:56:02.036Z,20.60
2022-10-22T22:59:04.988Z,18.20
2022-10-22T23:02:07.460Z,15.10
2022-10-22T23:05:09.990Z,18.58
2022-10-22T23:08:12.158Z,17.85
2022-10-22T23:11:14.486Z,19.33
2022-10-22T23:14:17.742Z,17.67
2022-10-22T23:17:20.028Z,18.33
2022-10-22T23:20:22.185Z,17.02
2022-10-22T23:23:24.389Z,18.02
2022-10-22T23:26:27.856Z,18.52
2022-10-22T23:29:31.067Z,19.37
2022-10-22T23:32:33.215Z,20.58
2022-10-22T23:35:38.986Z,20.85
2022-10-22T23:38:41.629Z,19.92
2022-10-22T23:41:44.187Z,20.02
2022-10-22T23:44:46.703Z,20.03
2022-10-22T23:47:48.856Z,19.17
2022-10-22T23:53:59.906Z,19.17
2022-10-22T23:57:02.120Z,17.90
